INFORMACIÓN METAR y TAF
METAR FOR LEJR
ADDS - METARS form results

(2352 UTC 12 December 2019)
Data provider http://aviationweather.gov/metar/data/
 
METAR text: LEJR 122330Z AUTO 24007KT 200V260 9999 SCT028 14/11 Q1025
Conditions at: LEJR (JEREZ (CIV/MIL) , ES) observed 2330 UTC 12 December 2019
Temperature: 14.0°C (57°F)
Dewpoint: 11.0°C (52°F) [RH = 82%]
Pressure (altimeter): 30.27 inches Hg (1025.0 mb)
Winds: from the WSW (240 degrees) at 8 MPH (7 knots; 3.6 m/s)
Visibility: 6 or more miles (10+ km)
Ceiling: at least 12,000 feet AGL
Clouds: scattered clouds at 2800 feet AGL
Weather: no significant weather observed at this time

METAR text: LEJR 122300Z AUTO 24006KT 9999 BKN029 13/11 Q1025
Conditions at: LEJR (JEREZ (CIV/MIL) , ES) observed 2300 UTC 12 December 2019
Temperature: 13.0°C (55°F)
Dewpoint: 11.0°C (52°F) [RH = 88%]
Pressure (altimeter): 30.27 inches Hg (1025.0 mb)
Winds: from the WSW (240 degrees) at 7 MPH (6 knots; 3.1 m/s)
Visibility: 6 or more miles (10+ km)
Ceiling: 2900 feet AGL
Clouds: broken clouds at 2900 feet AGL
Weather: no significant weather observed at this time

Forecast for: LEJR (JEREZ (CIV/MIL) , ES)
Text: TAF LEJR 122300Z 1300/1324 27012KT 9999 SCT020 TX18/1313Z TN09/1400Z
Forecast period: 0000 UTC 13 December 2019 to 0000 UTC 14 December 2019
Forecast type: FROM: standard forecast or significant change
Winds: from the W (270 degrees) at 14 MPH (12 knots; 6.2 m/s)
Visibility: 6 or more miles 10+ km)
Ceiling: at least 12,000 feet AGL
Clouds: scattered clouds at 2000 feet AGL
Weather: no significant weather forecast for this period
Text: PROB40
Forecast period: 0000 to 0900 UTC 13 December 2019
Forecast type: TEMPORARY: The following changes expected for less than half the time period
Visibility: missing
Ceiling: 900 feet AGL
Clouds: broken clouds at 900 feet AGL
Weather: no significant weather forecast for this period

MAPA DE AEROPUERTO

INFORMACIÓN DE PISTA
Pista 02 Longitud 7546 ft Ancho 148 ft
Elevación 68 ft Umbral desplazado 0 ft Rumbo de pista 21
Pista 20 Longitud 7546 ft Ancho 148 ft
Elevación 93 ft Umbral desplazado 0 ft Rumbo de pista 201

FRECUANCIAS DEL AEROPUERTO
Tipo APP Nombre APP Frecuencia 128.5 MHZ
Tipo GND Nombre GND Frecuencia 121.6 MHZ
Tipo TWR Nombre TWR Frecuencia 118.55 MHZ

RADIO AYUDAS DEL AEROPUERTO
Tipo NDB Nombre Jerez Frecuencia 433 KHZ
Tipo VOR-DME Nombre Jerez Frecuencia 113000 KHZ